sensor_id;sensor_type;location;lat;lon;timestamp;P1;durP1;ratioP1;P2;durP2;ratioP2
11604;SDS011;5858;43.076;25.626;2023-05-07T00:02:08;8.30;;;6.43;;
11604;SDS011;5858;43.076;25.626;2023-05-07T00:04:34;10.17;;;6.70;;
11604;SDS011;5858;43.076;25.626;2023-05-07T00:07:04;7.97;;;7.03;;
11604;SDS011;5858;43.076;25.626;2023-05-07T00:09:31;7.67;;;6.00;;
11604;SDS011;5858;43.076;25.626;2023-05-07T00:11:58;7.90;;;6.17;;
11604;SDS011;5858;43.076;25.626;2023-05-07T00:14:25;7.40;;;6.27;;
11604;SDS011;5858;43.076;25.626;2023-05-07T00:16:52;8.43;;;6.20;;
11604;SDS011;5858;43.076;25.626;2023-05-07T00:19:21;7.07;;;6.37;;
11604;SDS011;5858;43.076;25.626;2023-05-07T00:21:48;10.03;;;5.97;;
11604;SDS011;5858;43.076;25.626;2023-05-07T00:24:15;9.07;;;6.57;;
11604;SDS011;5858;43.076;25.626;2023-05-07T00:26:44;8.67;;;6.40;;
11604;SDS011;5858;43.076;25.626;2023-05-07T00:29:14;9.30;;;7.10;;
11604;SDS011;5858;43.076;25.626;2023-05-07T00:31:41;9.87;;;7.57;;
11604;SDS011;5858;43.076;25.626;2023-05-07T00:34:08;9.03;;;6.67;;
11604;SDS011;5858;43.076;25.626;2023-05-07T00:36:37;7.03;;;6.30;;
11604;SDS011;5858;43.076;25.626;2023-05-07T00:39:04;9.17;;;7.33;;
11604;SDS011;5858;43.076;25.626;2023-05-07T00:41:31;12.90;;;7.77;;
11604;SDS011;5858;43.076;25.626;2023-05-07T00:43:58;13.40;;;7.33;;
11604;SDS011;5858;43.076;25.626;2023-05-07T00:46:27;9.03;;;6.73;;
11604;SDS011;5858;43.076;25.626;2023-05-07T00:48:59;11.57;;;7.17;;
11604;SDS011;5858;43.076;25.626;2023-05-07T00:51:27;8.53;;;7.60;;
11604;SDS011;5858;43.076;25.626;2023-05-07T00:53:56;8.77;;;6.97;;
11604;SDS011;5858;43.076;25.626;2023-05-07T00:56:23;12.77;;;7.23;;
11604;SDS011;5858;43.076;25.626;2023-05-07T00:58:51;9.90;;;7.00;;
11604;SDS011;5858;43.076;25.626;2023-05-07T01:01:18;8.20;;;6.40;;
11604;SDS011;5858;43.076;25.626;2023-05-07T01:03:47;8.17;;;6.97;;
11604;SDS011;5858;43.076;25.626;2023-05-07T01:06:13;8.87;;;7.00;;
11604;SDS011;5858;43.076;25.626;2023-05-07T01:08:42;8.37;;;7.07;;
11604;SDS011;5858;43.076;25.626;2023-05-07T01:11:11;7.77;;;6.77;;
11604;SDS011;5858;43.076;25.626;2023-05-07T01:13:38;8.63;;;6.27;;
11604;SDS011;5858;43.076;25.626;2023-05-07T01:16:09;9.27;;;7.03;;
11604;SDS011;5858;43.076;25.626;2023-05-07T01:18:36;8.00;;;6.70;;
11604;SDS011;5858;43.076;25.626;2023-05-07T01:21:04;8.47;;;6.23;;
11604;SDS011;5858;43.076;25.626;2023-05-07T01:23:33;9.67;;;7.07;;
11604;SDS011;5858;43.076;25.626;2023-05-07T01:26:01;7.20;;;5.53;;
11604;SDS011;5858;43.076;25.626;2023-05-07T01:28:28;8.40;;;7.13;;
11604;SDS011;5858;43.076;25.626;2023-05-07T01:30:56;8.07;;;6.30;;
11604;SDS011;5858;43.076;25.626;2023-05-07T01:33:27;8.43;;;6.23;;
11604;SDS011;5858;43.076;25.626;2023-05-07T01:35:57;9.23;;;7.10;;
11604;SDS011;5858;43.076;25.626;2023-05-07T01:38:28;9.73;;;7.40;;
11604;SDS011;5858;43.076;25.626;2023-05-07T01:40:57;10.07;;;7.43;;
11604;SDS011;5858;43.076;25.626;2023-05-07T01:43:24;9.07;;;6.83;;
11604;SDS011;5858;43.076;25.626;2023-05-07T01:45:51;12.17;;;8.63;;
11604;SDS011;5858;43.076;25.626;2023-05-07T01:48:19;10.40;;;7.77;;
11604;SDS011;5858;43.076;25.626;2023-05-07T01:50:46;10.73;;;8.80;;
11604;SDS011;5858;43.076;25.626;2023-05-07T01:53:14;15.53;;;9.87;;
11604;SDS011;5858;43.076;25.626;2023-05-07T01:55:41;14.23;;;10.13;;
11604;SDS011;5858;43.076;25.626;2023-05-07T01:58:09;14.80;;;10.23;;
11604;SDS011;5858;43.076;25.626;2023-05-07T02:00:39;10.83;;;9.17;;
11604;SDS011;5858;43.076;25.626;2023-05-07T02:03:07;11.93;;;8.07;;
11604;SDS011;5858;43.076;25.626;2023-05-07T02:05:34;12.47;;;9.10;;
11604;SDS011;5858;43.076;25.626;2023-05-07T02:08:00;10.80;;;9.00;;
11604;SDS011;5858;43.076;25.626;2023-05-07T02:10:27;16.00;;;9.90;;
11604;SDS011;5858;43.076;25.626;2023-05-07T02:12:54;15.80;;;10.47;;
11604;SDS011;5858;43.076;25.626;2023-05-07T02:15:23;20.57;;;9.13;;
11604;SDS011;5858;43.076;25.626;2023-05-07T02:17:59;15.27;;;10.73;;
11604;SDS011;5858;43.076;25.626;2023-05-07T02:20:27;15.23;;;11.67;;
11604;SDS011;5858;43.076;25.626;2023-05-07T02:22:54;19.00;;;10.30;;
11604;SDS011;5858;43.076;25.626;2023-05-07T02:25:21;21.87;;;12.00;;
11604;SDS011;5858;43.076;25.626;2023-05-07T02:27:48;21.87;;;11.83;;
11604;SDS011;5858;43.076;25.626;2023-05-07T02:30:16;23.87;;;11.80;;
11604;SDS011;5858;43.076;25.626;2023-05-07T02:32:47;21.17;;;11.47;;
11604;SDS011;5858;43.076;25.626;2023-05-07T02:35:14;22.47;;;11.33;;
11604;SDS011;5858;43.076;25.626;2023-05-07T02:37:41;25.23;;;13.53;;
11604;SDS011;5858;43.076;25.626;2023-05-07T02:40:11;23.27;;;13.60;;
11604;SDS011;5858;43.076;25.626;2023-05-07T02:42:38;27.10;;;15.33;;
11604;SDS011;5858;43.076;25.626;2023-05-07T02:45:06;31.10;;;15.20;;
11604;SDS011;5858;43.076;25.626;2023-05-07T02:47:33;26.57;;;13.63;;
11604;SDS011;5858;43.076;25.626;2023-05-07T02:50:02;23.57;;;15.50;;
11604;SDS011;5858;43.076;25.626;2023-05-07T02:52:29;30.67;;;15.47;;
11604;SDS011;5858;43.076;25.626;2023-05-07T02:54:56;25.00;;;14.30;;
11604;SDS011;5858;43.076;25.626;2023-05-07T02:57:30;34.60;;;13.80;;
11604;SDS011;5858;43.076;25.626;2023-05-07T02:59:57;25.33;;;14.23;;
11604;SDS011;5858;43.076;25.626;2023-05-07T03:02:24;22.90;;;14.30;;
11604;SDS011;5858;43.076;25.626;2023-05-07T03:04:51;24.33;;;14.53;;
11604;SDS011;5858;43.076;25.626;2023-05-07T03:07:20;39.87;;;15.40;;
11604;SDS011;5858;43.076;25.626;2023-05-07T03:09:47;30.23;;;14.53;;
11604;SDS011;5858;43.076;25.626;2023-05-07T03:12:13;22.80;;;13.97;;
11604;SDS011;5858;43.076;25.626;2023-05-07T03:14:40;23.47;;;14.37;;
11604;SDS011;5858;43.076;25.626;2023-05-07T03:17:07;25.40;;;15.50;;
11604;SDS011;5858;43.076;25.626;2023-05-07T03:19:34;23.27;;;14.23;;
11604;SDS011;5858;43.076;25.626;2023-05-07T03:22:01;23.00;;;14.33;;
11604;SDS011;5858;43.076;25.626;2023-05-07T03:24:30;21.30;;;14.40;;
11604;SDS011;5858;43.076;25.626;2023-05-07T03:27:06;28.13;;;15.67;;
11604;SDS011;5858;43.076;25.626;2023-05-07T03:29:37;24.20;;;14.50;;
11604;SDS011;5858;43.076;25.626;2023-05-07T03:32:04;24.73;;;14.90;;
11604;SDS011;5858;43.076;25.626;2023-05-07T03:34:32;29.63;;;15.80;;
11604;SDS011;5858;43.076;25.626;2023-05-07T03:36:59;21.47;;;13.87;;
11604;SDS011;5858;43.076;25.626;2023-05-07T03:39:26;27.00;;;13.90;;
11604;SDS011;5858;43.076;25.626;2023-05-07T03:41:56;26.47;;;13.63;;
11604;SDS011;5858;43.076;25.626;2023-05-07T03:44:23;22.87;;;13.93;;
11604;SDS011;5858;43.076;25.626;2023-05-07T03:46:53;25.30;;;13.00;;
11604;SDS011;5858;43.076;25.626;2023-05-07T03:49:20;23.33;;;12.43;;
11604;SDS011;5858;43.076;25.626;2023-05-07T03:51:47;16.60;;;10.83;;
11604;SDS011;5858;43.076;25.626;2023-05-07T03:54:14;23.40;;;11.50;;
11604;SDS011;5858;43.076;25.626;2023-05-07T03:56:41;20.00;;;10.87;;
11604;SDS011;5858;43.076;25.626;2023-05-07T03:59:09;18.27;;;10.33;;
11604;SDS011;5858;43.076;25.626;2023-05-07T04:01:36;18.47;;;9.63;;
11604;SDS011;5858;43.076;25.626;2023-05-07T04:04:03;16.97;;;8.80;;
11604;SDS011;5858;43.076;25.626;2023-05-07T04:06:30;17.73;;;9.07;;
11604;SDS011;5858;43.076;25.626;2023-05-07T04:08:57;16.60;;;7.97;;
11604;SDS011;5858;43.076;25.626;2023-05-07T04:11:24;13.73;;;7.87;;
11604;SDS011;5858;43.076;25.626;2023-05-07T04:13:51;14.33;;;7.87;;
11604;SDS011;5858;43.076;25.626;2023-05-07T04:16:20;14.67;;;8.03;;
11604;SDS011;5858;43.076;25.626;2023-05-07T04:18:46;17.35;;;8.45;;
11604;SDS011;5858;43.076;25.626;2023-05-07T04:21:14;13.95;;;8.77;;
11604;SDS011;5858;43.076;25.626;2023-05-07T04:23:41;14.63;;;8.50;;
11604;SDS011;5858;43.076;25.626;2023-05-07T04:26:08;16.50;;;8.20;;
11604;SDS011;5858;43.076;25.626;2023-05-07T04:28:35;17.00;;;9.30;;
11604;SDS011;5858;43.076;25.626;2023-05-07T04:31:02;15.33;;;8.13;;
11604;SDS011;5858;43.076;25.626;2023-05-07T04:33:30;15.98;;;8.25;;
11604;SDS011;5858;43.076;25.626;2023-05-07T04:35:58;15.73;;;8.52;;
11604;SDS011;5858;43.076;25.626;2023-05-07T04:38:27;13.57;;;8.02;;
11604;SDS011;5858;43.076;25.626;2023-05-07T04:40:55;12.82;;;7.55;;
11604;SDS011;5858;43.076;25.626;2023-05-07T04:43:22;10.38;;;5.65;;
11604;SDS011;5858;43.076;25.626;2023-05-07T04:45:49;9.27;;;5.55;;
11604;SDS011;5858;43.076;25.626;2023-05-07T04:48:17;11.80;;;6.10;;
11604;SDS011;5858;43.076;25.626;2023-05-07T04:53:40;10.40;;;6.63;;
11604;SDS011;5858;43.076;25.626;2023-05-07T04:57:02;13.05;;;6.20;;
11604;SDS011;5858;43.076;25.626;2023-05-07T05:00:05;11.07;;;5.63;;
11604;SDS011;5858;43.076;25.626;2023-05-07T05:03:55;10.05;;;5.38;;
11604;SDS011;5858;43.076;25.626;2023-05-07T05:06:09;8.07;;;5.18;;
11604;SDS011;5858;43.076;25.626;2023-05-07T05:12:10;6.53;;;4.40;;
11604;SDS011;5858;43.076;25.626;2023-05-07T05:14:37;10.10;;;5.28;;
11604;SDS011;5858;43.076;25.626;2023-05-07T05:20:10;5.90;;;4.10;;
11604;SDS011;5858;43.076;25.626;2023-05-07T05:22:37;7.95;;;4.88;;
11604;SDS011;5858;43.076;25.626;2023-05-07T05:25:06;7.28;;;4.65;;
11604;SDS011;5858;43.076;25.626;2023-05-07T05:27:33;6.30;;;4.25;;
11604;SDS011;5858;43.076;25.626;2023-05-07T05:30:03;7.90;;;4.82;;
11604;SDS011;5858;43.076;25.626;2023-05-07T05:32:30;8.27;;;4.78;;
11604;SDS011;5858;43.076;25.626;2023-05-07T05:34:58;9.88;;;6.35;;
11604;SDS011;5858;43.076;25.626;2023-05-07T05:37:25;13.40;;;8.63;;
11604;SDS011;5858;43.076;25.626;2023-05-07T05:39:52;10.27;;;7.70;;
11604;SDS011;5858;43.076;25.626;2023-05-07T05:42:21;15.55;;;10.07;;
11604;SDS011;5858;43.076;25.626;2023-05-07T05:44:49;12.98;;;9.50;;
11604;SDS011;5858;43.076;25.626;2023-05-07T05:47:16;10.93;;;9.00;;
11604;SDS011;5858;43.076;25.626;2023-05-07T05:49:43;17.27;;;9.65;;
11604;SDS011;5858;43.076;25.626;2023-05-07T05:52:11;17.85;;;9.90;;
11604;SDS011;5858;43.076;25.626;2023-05-07T05:54:39;18.08;;;11.95;;
11604;SDS011;5858;43.076;25.626;2023-05-07T05:57:06;20.08;;;14.20;;
11604;SDS011;5858;43.076;25.626;2023-05-07T05:59:34;24.98;;;15.77;;
11604;SDS011;5858;43.076;25.626;2023-05-07T06:02:01;22.73;;;16.17;;
11604;SDS011;5858;43.076;25.626;2023-05-07T06:04:29;26.63;;;16.55;;
11604;SDS011;5858;43.076;25.626;2023-05-07T06:06:56;16.42;;;13.27;;
11604;SDS011;5858;43.076;25.626;2023-05-07T06:09:23;17.45;;;11.38;;
11604;SDS011;5858;43.076;25.626;2023-05-07T06:11:50;12.55;;;9.63;;
11604;SDS011;5858;43.076;25.626;2023-05-07T06:14:17;11.90;;;9.65;;
11604;SDS011;5858;43.076;25.626;2023-05-07T06:16:46;13.73;;;9.13;;
11604;SDS011;5858;43.076;25.626;2023-05-07T06:19:13;9.32;;;6.97;;
11604;SDS011;5858;43.076;25.626;2023-05-07T06:21:40;12.20;;;6.88;;
11604;SDS011;5858;43.076;25.626;2023-05-07T06:24:07;11.90;;;8.90;;
11604;SDS011;5858;43.076;25.626;2023-05-07T06:26:34;11.40;;;8.27;;
11604;SDS011;5858;43.076;25.626;2023-05-07T06:29:01;9.20;;;7.38;;
11604;SDS011;5858;43.076;25.626;2023-05-07T06:31:30;8.23;;;6.53;;
11604;SDS011;5858;43.076;25.626;2023-05-07T06:33:59;7.68;;;5.90;;
11604;SDS011;5858;43.076;25.626;2023-05-07T06:36:27;8.05;;;5.95;;
11604;SDS011;5858;43.076;25.626;2023-05-07T06:38:54;5.80;;;5.00;;
11604;SDS011;5858;43.076;25.626;2023-05-07T06:41:32;5.65;;;4.65;;
11604;SDS011;5858;43.076;25.626;2023-05-07T06:44:07;4.43;;;4.00;;
11604;SDS011;5858;43.076;25.626;2023-05-07T06:46:35;5.60;;;4.70;;
11604;SDS011;5858;43.076;25.626;2023-05-07T06:49:04;5.63;;;3.65;;
11604;SDS011;5858;43.076;25.626;2023-05-07T06:51:31;3.55;;;3.08;;
11604;SDS011;5858;43.076;25.626;2023-05-07T06:53:58;4.80;;;2.85;;
11604;SDS011;5858;43.076;25.626;2023-05-07T06:56:25;4.78;;;4.05;;
11604;SDS011;5858;43.076;25.626;2023-05-07T06:58:52;6.90;;;3.85;;
11604;SDS011;5858;43.076;25.626;2023-05-07T07:01:19;4.15;;;3.20;;
11604;SDS011;5858;43.076;25.626;2023-05-07T07:03:46;6.57;;;3.70;;
11604;SDS011;5858;43.076;25.626;2023-05-07T07:06:17;7.90;;;3.10;;
11604;SDS011;5858;43.076;25.626;2023-05-07T07:08:47;5.85;;;3.45;;
11604;SDS011;5858;43.076;25.626;2023-05-07T07:11:14;3.80;;;3.38;;
11604;SDS011;5858;43.076;25.626;2023-05-07T07:13:41;7.13;;;2.60;;
11604;SDS011;5858;43.076;25.626;2023-05-07T07:19:15;3.22;;;2.55;;
11604;SDS011;5858;43.076;25.626;2023-05-07T07:21:43;4.60;;;2.60;;
11604;SDS011;5858;43.076;25.626;2023-05-07T07:24:13;8.23;;;2.35;;
11604;SDS011;5858;43.076;25.626;2023-05-07T07:26:46;2.97;;;1.55;;
11604;SDS011;5858;43.076;25.626;2023-05-07T07:29:13;2.10;;;1.90;;
11604;SDS011;5858;43.076;25.626;2023-05-07T07:31:40;1.85;;;1.70;;
11604;SDS011;5858;43.076;25.626;2023-05-07T07:34:07;3.35;;;2.10;;
11604;SDS011;5858;43.076;25.626;2023-05-07T07:36:34;1.83;;;1.67;;
11604;SDS011;5858;43.076;25.626;2023-05-07T07:39:02;2.90;;;1.60;;
11604;SDS011;5858;43.076;25.626;2023-05-07T07:41:29;5.40;;;1.98;;
11604;SDS011;5858;43.076;25.626;2023-05-07T07:43:56;4.00;;;2.47;;
11604;SDS011;5858;43.076;25.626;2023-05-07T07:46:23;2.10;;;1.60;;
11604;SDS011;5858;43.076;25.626;2023-05-07T07:48:51;2.70;;;1.77;;
11604;SDS011;5858;43.076;25.626;2023-05-07T07:51:19;3.17;;;1.92;;
11604;SDS011;5858;43.076;25.626;2023-05-07T07:53:46;2.45;;;2.00;;
11604;SDS011;5858;43.076;25.626;2023-05-07T07:56:14;3.85;;;1.70;;
11604;SDS011;5858;43.076;25.626;2023-05-07T07:58:41;3.53;;;1.52;;
11604;SDS011;5858;43.076;25.626;2023-05-07T08:01:08;3.72;;;1.65;;
11604;SDS011;5858;43.076;25.626;2023-05-07T08:03:37;1.85;;;1.70;;
11604;SDS011;5858;43.076;25.626;2023-05-07T08:06:04;3.55;;;1.77;;
11604;SDS011;5858;43.076;25.626;2023-05-07T08:08:31;5.22;;;1.83;;
11604;SDS011;5858;43.076;25.626;2023-05-07T08:10:58;1.90;;;1.05;;
11604;SDS011;5858;43.076;25.626;2023-05-07T08:13:26;2.55;;;1.23;;
11604;SDS011;5858;43.076;25.626;2023-05-07T08:15:53;2.13;;;1.20;;
11604;SDS011;5858;43.076;25.626;2023-05-07T08:18:20;1.33;;;1.08;;
11604;SDS011;5858;43.076;25.626;2023-05-07T08:20:49;3.53;;;1.15;;
11604;SDS011;5858;43.076;25.626;2023-05-07T08:23:16;1.88;;;1.20;;
11604;SDS011;5858;43.076;25.626;2023-05-07T08:25:43;3.60;;;1.55;;
11604;SDS011;5858;43.076;25.626;2023-05-07T08:28:10;1.65;;;1.40;;
11604;SDS011;5858;43.076;25.626;2023-05-07T08:30:38;4.28;;;1.73;;
11604;SDS011;5858;43.076;25.626;2023-05-07T08:33:05;1.35;;;1.25;;
11604;SDS011;5858;43.076;25.626;2023-05-07T08:35:32;2.05;;;1.42;;
11604;SDS011;5858;43.076;25.626;2023-05-07T08:37:59;4.30;;;1.20;;
11604;SDS011;5858;43.076;25.626;2023-05-07T08:40:26;2.38;;;1.30;;
11604;SDS011;5858;43.076;25.626;2023-05-07T08:42:54;1.55;;;1.10;;
11604;SDS011;5858;43.076;25.626;2023-05-07T08:45:23;3.40;;;1.20;;
11604;SDS011;5858;43.076;25.626;2023-05-07T08:47:54;1.65;;;1.38;;
11604;SDS011;5858;43.076;25.626;2023-05-07T08:50:24;2.67;;;1.20;;
11604;SDS011;5858;43.076;25.626;2023-05-07T08:52:51;1.67;;;1.13;;
11604;SDS011;5858;43.076;25.626;2023-05-07T08:55:20;2.22;;;1.17;;
11604;SDS011;5858;43.076;25.626;2023-05-07T08:57:48;1.90;;;0.93;;
11604;SDS011;5858;43.076;25.626;2023-05-07T09:00:17;1.35;;;0.95;;
11604;SDS011;5858;43.076;25.626;2023-05-07T09:02:44;1.38;;;1.00;;
11604;SDS011;5858;43.076;25.626;2023-05-07T09:05:13;1.65;;;1.13;;
11604;SDS011;5858;43.076;25.626;2023-05-07T09:07:40;2.15;;;1.10;;
11604;SDS011;5858;43.076;25.626;2023-05-07T09:10:07;1.00;;;0.90;;
11604;SDS011;5858;43.076;25.626;2023-05-07T09:12:35;2.35;;;1.27;;
11604;SDS011;5858;43.076;25.626;2023-05-07T09:15:02;2.05;;;1.48;;
11604;SDS011;5858;43.076;25.626;2023-05-07T09:17:29;1.63;;;1.20;;
11604;SDS011;5858;43.076;25.626;2023-05-07T09:19:56;2.47;;;1.30;;
11604;SDS011;5858;43.076;25.626;2023-05-07T09:22:29;1.35;;;1.10;;
11604;SDS011;5858;43.076;25.626;2023-05-07T09:24:58;1.88;;;1.40;;
11604;SDS011;5858;43.076;25.626;2023-05-07T09:27:25;2.58;;;1.20;;
11604;SDS011;5858;43.076;25.626;2023-05-07T09:29:52;3.55;;;1.55;;
11604;SDS011;5858;43.076;25.626;2023-05-07T09:32:20;1.65;;;1.50;;
11604;SDS011;5858;43.076;25.626;2023-05-07T09:34:47;1.85;;;1.60;;
11604;SDS011;5858;43.076;25.626;2023-05-07T09:37:14;1.30;;;1.20;;
11604;SDS011;5858;43.076;25.626;2023-05-07T09:39:44;4.10;;;1.30;;
11604;SDS011;5858;43.076;25.626;2023-05-07T09:42:12;1.80;;;1.50;;
11604;SDS011;5858;43.076;25.626;2023-05-07T09:44:40;3.05;;;1.55;;
11604;SDS011;5858;43.076;25.626;2023-05-07T09:47:08;3.17;;;1.60;;
11604;SDS011;5858;43.076;25.626;2023-05-07T09:49:37;4.53;;;1.38;;
11604;SDS011;5858;43.076;25.626;2023-05-07T09:52:07;1.45;;;1.23;;
11604;SDS011;5858;43.076;25.626;2023-05-07T09:54:35;5.35;;;1.60;;
11604;SDS011;5858;43.076;25.626;2023-05-07T09:57:05;2.15;;;1.42;;
11604;SDS011;5858;43.076;25.626;2023-05-07T09:59:33;1.60;;;1.30;;
11604;SDS011;5858;43.076;25.626;2023-05-07T10:02:03;1.13;;;1.02;;
11604;SDS011;5858;43.076;25.626;2023-05-07T10:04:31;8.07;;;1.70;;
11604;SDS011;5858;43.076;25.626;2023-05-07T10:07:09;3.08;;;1.27;;
11604;SDS011;5858;43.076;25.626;2023-05-07T10:09:44;2.53;;;1.52;;
11604;SDS011;5858;43.076;25.626;2023-05-07T10:12:35;2.92;;;1.58;;
11604;SDS011;5858;43.076;25.626;2023-05-07T10:15:12;3.92;;;1.50;;
11604;SDS011;5858;43.076;25.626;2023-05-07T10:18:06;2.28;;;1.58;;
11604;SDS011;5858;43.076;25.626;2023-05-07T10:20:47;1.98;;;1.60;;
11604;SDS011;5858;43.076;25.626;2023-05-07T10:23:18;2.17;;;1.83;;
11604;SDS011;5858;43.076;25.626;2023-05-07T10:25:49;3.97;;;1.48;;
11604;SDS011;5858;43.076;25.626;2023-05-07T10:28:18;1.70;;;1.60;;
11604;SDS011;5858;43.076;25.626;2023-05-07T10:30:50;3.28;;;1.40;;
11604;SDS011;5858;43.076;25.626;2023-05-07T10:33:26;4.57;;;2.00;;
11604;SDS011;5858;43.076;25.626;2023-05-07T10:35:55;2.42;;;1.45;;
11604;SDS011;5858;43.076;25.626;2023-05-07T10:38:26;2.70;;;1.55;;
11604;SDS011;5858;43.076;25.626;2023-05-07T10:40:53;2.78;;;1.50;;
11604;SDS011;5858;43.076;25.626;2023-05-07T10:43:22;1.60;;;1.50;;
11604;SDS011;5858;43.076;25.626;2023-05-07T10:46:13;4.30;;;1.60;;
11604;SDS011;5858;43.076;25.626;2023-05-07T10:51:41;9.32;;;2.50;;
11604;SDS011;5858;43.076;25.626;2023-05-07T10:54:18;1.60;;;1.50;;
11604;SDS011;5858;43.076;25.626;2023-05-07T10:56:48;2.88;;;1.50;;
11604;SDS011;5858;43.076;25.626;2023-05-07T10:59:34;2.05;;;1.23;;
11604;SDS011;5858;43.076;25.626;2023-05-07T11:02:06;1.58;;;1.15;;
11604;SDS011;5858;43.076;25.626;2023-05-07T11:04:36;4.28;;;2.03;;
11604;SDS011;5858;43.076;25.626;2023-05-07T11:09:54;1.60;;;1.40;;
11604;SDS011;5858;43.076;25.626;2023-05-07T11:12:50;2.28;;;1.73;;
11604;SDS011;5858;43.076;25.626;2023-05-07T11:15:35;2.42;;;1.70;;
11604;SDS011;5858;43.076;25.626;2023-05-07T11:18:19;3.47;;;1.83;;
11604;SDS011;5858;43.076;25.626;2023-05-07T11:21:04;3.08;;;1.50;;
11604;SDS011;5858;43.076;25.626;2023-05-07T11:26:27;4.20;;;1.60;;
11604;SDS011;5858;43.076;25.626;2023-05-07T11:28:56;2.22;;;1.70;;
11604;SDS011;5858;43.076;25.626;2023-05-07T11:31:27;2.67;;;1.45;;
11604;SDS011;5858;43.076;25.626;2023-05-07T11:33:55;2.20;;;1.77;;
11604;SDS011;5858;43.076;25.626;2023-05-07T11:36:23;5.78;;;1.80;;
11604;SDS011;5858;43.076;25.626;2023-05-07T11:38:51;2.30;;;1.58;;
11604;SDS011;5858;43.076;25.626;2023-05-07T11:41:18;2.25;;;1.88;;
11604;SDS011;5858;43.076;25.626;2023-05-07T11:43:58;2.10;;;1.70;;
11604;SDS011;5858;43.076;25.626;2023-05-07T11:46:28;3.38;;;1.70;;
11604;SDS011;5858;43.076;25.626;2023-05-07T11:48:55;3.08;;;1.50;;
11604;SDS011;5858;43.076;25.626;2023-05-07T11:51:23;2.10;;;1.60;;
11604;SDS011;5858;43.076;25.626;2023-05-07T11:53:51;3.42;;;1.60;;
11604;SDS011;5858;43.076;25.626;2023-05-07T11:56:19;1.63;;;1.50;;
11604;SDS011;5858;43.076;25.626;2023-05-07T11:58:46;4.00;;;1.70;;
11604;SDS011;5858;43.076;25.626;2023-05-07T12:01:15;2.85;;;1.42;;
11604;SDS011;5858;43.076;25.626;2023-05-07T12:03:45;2.75;;;1.75;;
11604;SDS011;5858;43.076;25.626;2023-05-07T12:06:13;1.88;;;1.40;;
11604;SDS011;5858;43.076;25.626;2023-05-07T12:08:41;3.05;;;1.60;;
11604;SDS011;5858;43.076;25.626;2023-05-07T12:11:09;2.28;;;1.45;;
11604;SDS011;5858;43.076;25.626;2023-05-07T12:13:40;1.65;;;1.42;;
11604;SDS011;5858;43.076;25.626;2023-05-07T12:16:08;1.50;;;1.30;;
11604;SDS011;5858;43.076;25.626;2023-05-07T12:18:35;6.10;;;2.33;;
11604;SDS011;5858;43.076;25.626;2023-05-07T12:21:06;2.30;;;1.38;;
11604;SDS011;5858;43.076;25.626;2023-05-07T12:23:36;5.60;;;1.75;;
11604;SDS011;5858;43.076;25.626;2023-05-07T12:26:07;4.00;;;2.63;;
11604;SDS011;5858;43.076;25.626;2023-05-07T12:28:38;2.28;;;1.98;;
11604;SDS011;5858;43.076;25.626;2023-05-07T12:31:05;2.15;;;1.55;;
11604;SDS011;5858;43.076;25.626;2023-05-07T12:33:33;3.72;;;1.80;;
11604;SDS011;5858;43.076;25.626;2023-05-07T12:36:02;2.05;;;1.77;;
11604;SDS011;5858;43.076;25.626;2023-05-07T12:38:41;2.25;;;1.50;;
11604;SDS011;5858;43.076;25.626;2023-05-07T12:41:09;4.18;;;1.85;;
11604;SDS011;5858;43.076;25.626;2023-05-07T12:43:37;3.85;;;1.70;;
11604;SDS011;5858;43.076;25.626;2023-05-07T12:46:07;2.20;;;1.50;;
11604;SDS011;5858;43.076;25.626;2023-05-07T12:48:36;3.00;;;1.63;;
11604;SDS011;5858;43.076;25.626;2023-05-07T12:51:05;2.40;;;1.75;;
11604;SDS011;5858;43.076;25.626;2023-05-07T12:53:38;2.50;;;1.40;;
11604;SDS011;5858;43.076;25.626;2023-05-07T12:56:06;2.58;;;1.52;;
11604;SDS011;5858;43.076;25.626;2023-05-07T12:58:33;2.00;;;1.65;;
11604;SDS011;5858;43.076;25.626;2023-05-07T13:01:01;4.57;;;1.60;;
11604;SDS011;5858;43.076;25.626;2023-05-07T13:03:31;3.67;;;1.50;;
11604;SDS011;5858;43.076;25.626;2023-05-07T13:05:59;2.53;;;1.60;;
11604;SDS011;5858;43.076;25.626;2023-05-07T13:08:29;4.15;;;1.60;;
11604;SDS011;5858;43.076;25.626;2023-05-07T13:10:58;2.75;;;1.40;;
11604;SDS011;5858;43.076;25.626;2023-05-07T13:13:28;4.93;;;1.77;;
11604;SDS011;5858;43.076;25.626;2023-05-07T13:15:55;2.75;;;1.60;;
11604;SDS011;5858;43.076;25.626;2023-05-07T13:18:24;2.15;;;1.42;;
11604;SDS011;5858;43.076;25.626;2023-05-07T13:20:54;1.95;;;1.52;;
11604;SDS011;5858;43.076;25.626;2023-05-07T13:23:22;3.83;;;1.90;;
11604;SDS011;5858;43.076;25.626;2023-05-07T13:30:11;3.20;;;1.60;;
11604;SDS011;5858;43.076;25.626;2023-05-07T13:33:14;4.20;;;1.92;;
11604;SDS011;5858;43.076;25.626;2023-05-07T13:36:31;4.30;;;1.90;;
11604;SDS011;5858;43.076;25.626;2023-05-07T13:53:45;3.83;;;2.83;;
11604;SDS011;5858;43.076;25.626;2023-05-07T13:56:28;2.35;;;1.58;;
11604;SDS011;5858;43.076;25.626;2023-05-07T13:58:58;4.20;;;1.83;;
11604;SDS011;5858;43.076;25.626;2023-05-07T14:01:25;1.95;;;1.65;;
11604;SDS011;5858;43.076;25.626;2023-05-07T14:03:52;1.95;;;1.67;;
11604;SDS011;5858;43.076;25.626;2023-05-07T14:06:19;1.63;;;1.50;;
11604;SDS011;5858;43.076;25.626;2023-05-07T14:08:46;3.55;;;1.98;;
11604;SDS011;5858;43.076;25.626;2023-05-07T14:11:13;4.38;;;2.58;;
11604;SDS011;5858;43.076;25.626;2023-05-07T14:13:40;2.85;;;1.90;;
11604;SDS011;5858;43.076;25.626;2023-05-07T14:16:09;3.53;;;1.70;;
11604;SDS011;5858;43.076;25.626;2023-05-07T14:18:37;1.50;;;1.40;;
11604;SDS011;5858;43.076;25.626;2023-05-07T14:21:10;2.17;;;1.55;;
11604;SDS011;5858;43.076;25.626;2023-05-07T14:23:37;3.08;;;1.67;;
11604;SDS011;5858;43.076;25.626;2023-05-07T14:26:06;1.70;;;1.60;;
11604;SDS011;5858;43.076;25.626;2023-05-07T14:28:33;5.10;;;1.65;;
11604;SDS011;5858;43.076;25.626;2023-05-07T14:31:00;1.90;;;1.48;;
11604;SDS011;5858;43.076;25.626;2023-05-07T14:33:29;1.85;;;1.52;;
11604;SDS011;5858;43.076;25.626;2023-05-07T14:35:59;2.88;;;1.67;;
11604;SDS011;5858;43.076;25.626;2023-05-07T14:38:38;1.92;;;1.63;;
11604;SDS011;5858;43.076;25.626;2023-05-07T14:41:05;2.17;;;1.70;;
11604;SDS011;5858;43.076;25.626;2023-05-07T14:43:32;1.85;;;1.30;;
11604;SDS011;5858;43.076;25.626;2023-05-07T14:45:59;1.45;;;1.30;;
11604;SDS011;5858;43.076;25.626;2023-05-07T14:48:26;3.20;;;1.90;;
11604;SDS011;5858;43.076;25.626;2023-05-07T14:50:55;2.20;;;1.50;;
11604;SDS011;5858;43.076;25.626;2023-05-07T14:53:22;2.65;;;1.75;;
11604;SDS011;5858;43.076;25.626;2023-05-07T14:55:49;3.38;;;1.70;;
11604;SDS011;5858;43.076;25.626;2023-05-07T14:58:16;4.93;;;1.80;;
11604;SDS011;5858;43.076;25.626;2023-05-07T15:00:43;1.63;;;1.38;;
11604;SDS011;5858;43.076;25.626;2023-05-07T15:03:10;2.03;;;1.40;;
11604;SDS011;5858;43.076;25.626;2023-05-07T15:05:40;2.00;;;1.70;;
11604;SDS011;5858;43.076;25.626;2023-05-07T15:08:09;2.60;;;1.67;;
11604;SDS011;5858;43.076;25.626;2023-05-07T15:10:38;1.40;;;1.30;;
11604;SDS011;5858;43.076;25.626;2023-05-07T15:13:06;1.65;;;1.48;;
11604;SDS011;5858;43.076;25.626;2023-05-07T15:15:33;2.42;;;2.22;;
11604;SDS011;5858;43.076;25.626;2023-05-07T15:18:01;3.20;;;1.48;;
11604;SDS011;5858;43.076;25.626;2023-05-07T15:20:28;2.70;;;1.60;;
11604;SDS011;5858;43.076;25.626;2023-05-07T15:22:58;4.95;;;1.80;;
11604;SDS011;5858;43.076;25.626;2023-05-07T15:25:27;1.98;;;1.70;;
11604;SDS011;5858;43.076;25.626;2023-05-07T15:27:56;3.63;;;1.73;;
11604;SDS011;5858;43.076;25.626;2023-05-07T15:30:23;2.28;;;2.08;;
11604;SDS011;5858;43.076;25.626;2023-05-07T15:32:58;4.95;;;2.53;;
11604;SDS011;5858;43.076;25.626;2023-05-07T15:35:53;2.00;;;1.70;;